createdAt,value
2022-08-18T00:00:20.947Z,949.4
2022-08-18T00:01:22.515Z,949.3
2022-08-18T00:02:31.334Z,949.4
2022-08-18T00:04:09.861Z,949.4
2022-08-18T00:05:40.315Z,949.4
2022-08-18T00:06:45.151Z,949.4
2022-08-18T00:07:47.466Z,949.3
2022-08-18T00:08:53.443Z,949.3
2022-08-18T00:09:55.087Z,949.3
2022-08-18T00:10:56.731Z,949.3
2022-08-18T00:11:58.291Z,949.4
2022-08-18T00:13:01.771Z,949.3
2022-08-18T00:14:03.428Z,949.3
2022-08-18T00:15:05.074Z,949.4
2022-08-18T00:16:06.800Z,949.4
2022-08-18T00:17:08.448Z,949.4
2022-08-18T00:18:11.001Z,949.3
2022-08-18T00:19:12.562Z,949.4
2022-08-18T00:20:14.223Z,949.4
2022-08-18T00:21:15.968Z,949.3
2022-08-18T00:22:17.802Z,949.4
2022-08-18T00:23:19.547Z,949.4
2022-08-18T00:24:21.158Z,949.4
2022-08-18T00:25:22.836Z,949.4
2022-08-18T00:26:24.644Z,949.4
2022-08-18T00:27:29.207Z,949.4
2022-08-18T00:28:30.970Z,949.4
2022-08-18T00:29:32.509Z,949.3
2022-08-18T00:30:34.153Z,949.4
2022-08-18T00:31:35.799Z,949.4
2022-08-18T00:32:37.553Z,949.4
2022-08-18T00:33:39.194Z,949.4
2022-08-18T00:34:41.391Z,949.4
2022-08-18T00:35:43.097Z,949.4
2022-08-18T00:36:44.740Z,949.3
2022-08-18T00:37:46.492Z,949.3
2022-08-18T00:38:48.118Z,949.3
2022-08-18T00:39:49.999Z,949.3
2022-08-18T00:40:51.918Z,949.3
2022-08-18T00:41:53.549Z,949.3
2022-08-18T00:42:55.348Z,949.3
2022-08-18T00:43:56.890Z,949.3
2022-08-18T00:44:58.523Z,949.3
2022-08-18T00:46:02.603Z,949.3
2022-08-18T00:47:04.309Z,949.3
2022-08-18T00:48:06.198Z,949.4
2022-08-18T00:49:07.796Z,949.4
2022-08-18T00:50:16.189Z,949.4
2022-08-18T00:51:18.016Z,949.4
2022-08-18T00:52:19.845Z,949.5
2022-08-18T00:53:21.714Z,949.4
2022-08-18T00:54:23.571Z,949.5
2022-08-18T00:55:26.642Z,949.5
2022-08-18T00:56:28.578Z,949.5
2022-08-18T00:57:30.127Z,949.5
2022-08-18T00:58:36.066Z,949.5
2022-08-18T00:59:37.728Z,949.5
2022-08-18T01:00:39.627Z,949.5
2022-08-18T01:01:41.493Z,949.5
2022-08-18T01:02:43.027Z,949.5
2022-08-18T01:03:44.625Z,949.5
2022-08-18T01:04:46.267Z,949.5
2022-08-18T01:05:47.803Z,949.5
2022-08-18T01:06:49.455Z,949.5
2022-08-18T01:07:51.979Z,949.4
2022-08-18T01:08:54.275Z,949.5
2022-08-18T01:09:55.919Z,949.5
2022-08-18T01:10:57.653Z,949.6
2022-08-18T01:11:59.607Z,949.5
2022-08-18T01:13:01.144Z,949.5
2022-08-18T01:14:02.693Z,949.5
2022-08-18T01:15:04.233Z,949.5
2022-08-18T01:16:05.901Z,949.5
2022-08-18T01:17:07.727Z,949.6
2022-08-18T01:18:09.376Z,949.5
2022-08-18T01:19:10.895Z,949.5
2022-08-18T01:20:12.577Z,949.5
2022-08-18T01:21:14.232Z,949.5
2022-08-18T01:22:16.051Z,949.5
2022-08-18T01:23:17.668Z,949.5
2022-08-18T01:24:22.420Z,949.5
2022-08-18T01:25:26.723Z,949.6
2022-08-18T01:26:28.338Z,949.6
2022-08-18T01:27:30.032Z,949.5
2022-08-18T01:28:31.643Z,949.5
2022-08-18T01:29:33.319Z,949.5
2022-08-18T01:30:34.892Z,949.5
2022-08-18T01:31:36.830Z,949.5
2022-08-18T01:32:38.513Z,949.5
2022-08-18T01:33:42.525Z,949.5
2022-08-18T01:34:44.220Z,949.5
2022-08-18T01:35:45.965Z,949.5
2022-08-18T01:36:47.655Z,949.4
2022-08-18T01:37:49.193Z,949.4
2022-08-18T01:38:50.799Z,949.5
2022-08-18T01:41:31.321Z,949.4
2022-08-18T01:42:33.259Z,949.4
2022-08-18T01:43:36.366Z,949.4
2022-08-18T01:44:37.902Z,949.4
2022-08-18T01:45:39.438Z,949.4
2022-08-18T01:46:41.639Z,949.4
2022-08-18T01:47:48.990Z,949.3
2022-08-18T01:48:50.602Z,949.3
2022-08-18T01:49:52.399Z,949.3
2022-08-18T01:50:54.146Z,949.3
2022-08-18T01:51:55.882Z,949.3
2022-08-18T01:52:57.424Z,949.2
2022-08-18T01:53:58.991Z,949.3
2022-08-18T01:55:00.590Z,949.3
2022-08-18T01:56:02.395Z,949.2
2022-08-18T01:57:04.108Z,949.3
2022-08-18T01:58:05.773Z,949.3
2022-08-18T01:59:07.318Z,949.3
2022-08-18T02:00:12.934Z,949.3
2022-08-18T02:01:14.942Z,949.3
2022-08-18T02:02:19.201Z,949.3
2022-08-18T02:03:20.904Z,949.2
2022-08-18T02:04:38.080Z,949.3
2022-08-18T02:05:40.431Z,949.3
2022-08-18T02:06:48.339Z,949.3
2022-08-18T02:07:55.079Z,949.2
2022-08-18T02:08:57.553Z,949.3
2022-08-18T02:09:59.739Z,949.3
2022-08-18T02:11:01.433Z,949.2
2022-08-18T02:12:03.383Z,949.3
2022-08-18T02:13:05.140Z,949.3
2022-08-18T02:14:06.809Z,949.3
2022-08-18T02:15:08.342Z,949.4
2022-08-18T02:16:10.087Z,949.4
2022-08-18T02:17:11.839Z,949.4
2022-08-18T02:18:48.869Z,949.4
2022-08-18T02:19:50.635Z,949.4
2022-08-18T02:20:52.353Z,949.4
2022-08-18T02:21:54.145Z,949.4
2022-08-18T02:22:55.889Z,949.5
2022-08-18T02:23:57.548Z,949.5
2022-08-18T02:24:59.090Z,949.5
2022-08-18T02:26:00.836Z,949.5
2022-08-18T02:27:02.575Z,949.4
2022-08-18T02:28:04.173Z,949.4
2022-08-18T02:29:05.745Z,949.5
2022-08-18T02:30:07.405Z,949.5
2022-08-18T02:31:11.812Z,949.5
2022-08-18T02:32:13.356Z,949.5
2022-08-18T02:33:15.023Z,949.5
2022-08-18T02:34:16.644Z,949.4
2022-08-18T02:35:18.395Z,949.4
2022-08-18T02:36:23.922Z,949.4
2022-08-18T02:37:27.335Z,949.4
2022-08-18T02:38:33.774Z,949.4
2022-08-18T02:39:35.785Z,949.3
2022-08-18T02:40:37.585Z,949.4
2022-08-18T02:41:39.134Z,949.3
2022-08-18T02:42:40.968Z,949.3
2022-08-18T02:43:42.701Z,949.3
2022-08-18T02:44:44.364Z,949.3
2022-08-18T02:45:45.916Z,949.3
2022-08-18T02:46:47.424Z,949.3
2022-08-18T02:47:49.120Z,949.3
2022-08-18T02:48:50.942Z,949.3
2022-08-18T02:49:52.585Z,949.3
2022-08-18T02:50:54.129Z,949.3
2022-08-18T02:51:55.792Z,949.4
2022-08-18T02:52:57.437Z,949.4
2022-08-18T02:53:58.962Z,949.4
2022-08-18T02:55:00.708Z,949.4
2022-08-18T02:56:02.253Z,949.4
2022-08-18T02:57:03.760Z,949.4
2022-08-18T02:58:05.450Z,949.4
2022-08-18T02:59:07.206Z,949.4
2022-08-18T03:00:09.296Z,949.4
2022-08-18T03:01:11.571Z,949.5
2022-08-18T03:02:13.582Z,949.5
2022-08-18T03:03:15.229Z,949.5
2022-08-18T03:04:16.854Z,949.5
2022-08-18T03:05:18.594Z,949.5
2022-08-18T03:06:20.272Z,949.5
2022-08-18T03:07:21.909Z,949.5
2022-08-18T03:08:23.518Z,949.5
2022-08-18T03:09:25.056Z,949.5
2022-08-18T03:10:34.478Z,949.4
2022-08-18T03:11:36.115Z,949.4
2022-08-18T03:12:37.785Z,949.4
2022-08-18T03:13:39.539Z,949.4
2022-08-18T03:14:41.287Z,949.5
2022-08-18T03:15:42.935Z,949.5
2022-08-18T03:16:55.672Z,949.5
2022-08-18T03:17:57.350Z,949.5
2022-08-18T03:18:58.867Z,949.5
2022-08-18T03:20:02.865Z,949.5
2022-08-18T03:21:08.055Z,949.5
2022-08-18T03:22:32.572Z,949.5
2022-08-18T03:23:34.297Z,949.6
2022-08-18T03:24:36.007Z,949.5
2022-08-18T03:25:37.617Z,949.5
2022-08-18T03:26:39.340Z,949.6
2022-08-18T03:27:41.090Z,949.5
2022-08-18T03:28:42.971Z,949.6
2022-08-18T03:29:44.863Z,949.6
2022-08-18T03:30:46.400Z,949.6
2022-08-18T03:31:48.138Z,949.6
2022-08-18T03:32:49.935Z,949.6
2022-08-18T03:33:51.586Z,949.6
2022-08-18T03:34:53.319Z,949.6
2022-08-18T03:35:54.942Z,949.6
2022-08-18T03:36:56.620Z,949.6
2022-08-18T03:37:58.196Z,949.6
2022-08-18T03:38:59.902Z,949.6
2022-08-18T03:40:01.955Z,949.6
2022-08-18T03:41:03.754Z,949.6
2022-08-18T03:42:05.352Z,949.6
2022-08-18T03:43:52.342Z,949.6
2022-08-18T03:44:53.920Z,949.7
2022-08-18T03:45:55.695Z,949.7
2022-08-18T03:46:57.399Z,949.6
2022-08-18T03:47:59.025Z,949.7
2022-08-18T03:49:00.734Z,949.7
2022-08-18T03:50:02.317Z,949.7
2022-08-18T03:51:05.926Z,949.7
2022-08-18T03:52:07.484Z,949.7
2022-08-18T03:53:09.194Z,949.7
2022-08-18T03:54:11.042Z,949.7
2022-08-18T03:55:12.601Z,949.7
2022-08-18T03:56:18.233Z,949.7
2022-08-18T03:57:20.061Z,949.7
2022-08-18T03:58:21.603Z,949.7
2022-08-18T03:59:23.292Z,949.7
2022-08-18T04:00:24.973Z,949.8
2022-08-18T04:01:27.908Z,949.8
2022-08-18T04:02:29.599Z,949.8
2022-08-18T04:03:31.380Z,949.8
2022-08-18T04:04:34.972Z,949.8
2022-08-18T04:05:37.829Z,949.8
2022-08-18T04:06:39.698Z,949.7
2022-08-18T04:07:44.798Z,949.8
2022-08-18T04:08:48.226Z,949.8
2022-08-18T04:09:49.778Z,949.7
2022-08-18T04:10:51.413Z,949.8
2022-08-18T04:11:53.158Z,949.8
2022-08-18T04:12:54.806Z,949.8
2022-08-18T04:13:56.455Z,949.8
2022-08-18T04:14:58.102Z,949.9
2022-08-18T04:15:59.754Z,949.9
2022-08-18T04:17:01.286Z,949.8
2022-08-18T04:18:04.860Z,949.8
2022-08-18T04:19:06.833Z,949.8
2022-08-18T04:20:08.377Z,949.8
2022-08-18T04:21:09.916Z,949.8
2022-08-18T04:22:18.842Z,949.8
2022-08-18T04:23:20.533Z,949.8
2022-08-18T04:24:22.385Z,949.8
2022-08-18T04:25:24.178Z,949.8
2022-08-18T04:26:27.199Z,949.8
2022-08-18T04:27:28.751Z,949.8
2022-08-18T04:28:30.650Z,949.8
2022-08-18T04:29:32.257Z,949.9
2022-08-18T04:30:33.814Z,949.9
2022-08-18T04:31:35.464Z,949.8
2022-08-18T04:32:37.209Z,949.9
2022-08-18T04:33:38.880Z,949.9
2022-08-18T04:34:40.563Z,949.9
2022-08-18T04:35:42.263Z,949.9
2022-08-18T04:36:43.914Z,949.9
2022-08-18T04:37:45.522Z,950
2022-08-18T04:38:47.097Z,950
2022-08-18T04:39:49.072Z,949.9
2022-08-18T04:40:50.849Z,950
2022-08-18T04:41:52.650Z,949.9
2022-08-18T04:42:54.395Z,949.9
2022-08-18T04:43:56.007Z,950
2022-08-18T04:44:57.684Z,950
2022-08-18T04:45:59.237Z,950
2022-08-18T04:47:00.851Z,949.9
2022-08-18T04:48:02.503Z,950
2022-08-18T04:49:04.062Z,950
2022-08-18T04:50:05.706Z,950
2022-08-18T04:51:07.446Z,950
2022-08-18T04:52:42.172Z,949.9
2022-08-18T04:53:43.781Z,950
2022-08-18T04:54:45.462Z,950
2022-08-18T04:55:47.112Z,950
2022-08-18T04:56:48.650Z,950.1
2022-08-18T04:57:50.670Z,950
2022-08-18T04:58:52.771Z,950
2022-08-18T04:59:54.315Z,950.1
2022-08-18T05:00:56.380Z,950
2022-08-18T05:01:58.203Z,950.1
2022-08-18T05:02:59.842Z,950.1
2022-08-18T05:04:01.384Z,950.1
2022-08-18T05:05:03.233Z,950
2022-08-18T05:06:05.309Z,950.1
2022-08-18T05:07:06.947Z,950.1
2022-08-18T05:08:08.608Z,950.1
2022-08-18T05:09:10.331Z,950.1
2022-08-18T05:10:12.074Z,950.1
2022-08-18T05:11:13.839Z,950.1
2022-08-18T05:12:15.483Z,950.2
2022-08-18T05:13:17.254Z,950.1
2022-08-18T05:14:18.963Z,950.2
2022-08-18T05:15:20.601Z,950.1
2022-08-18T05:16:28.300Z,950.2
2022-08-18T05:17:31.572Z,950.1
2022-08-18T05:18:33.750Z,950.2
2022-08-18T05:19:44.729Z,950.2
2022-08-18T05:20:46.462Z,950.2
2022-08-18T05:21:51.791Z,950.3
2022-08-18T05:22:53.904Z,950.2
2022-08-18T05:23:55.456Z,950.2
2022-08-18T05:24:57.244Z,950.2
2022-08-18T05:25:58.884Z,950.2
2022-08-18T05:27:00.434Z,950.2
2022-08-18T05:28:02.162Z,950.2
2022-08-18T05:29:20.092Z,950.2
2022-08-18T05:30:22.357Z,950.2
2022-08-18T05:31:24.016Z,950.2
2022-08-18T05:32:50.784Z,950.2
2022-08-18T05:33:52.584Z,950.2
2022-08-18T05:34:54.217Z,950.2
2022-08-18T05:35:55.845Z,950.2
2022-08-18T05:36:57.714Z,950.2
2022-08-18T05:37:59.376Z,950.2
2022-08-18T05:39:01.000Z,950.2
2022-08-18T05:40:11.951Z,950.3
2022-08-18T05:41:14.743Z,950.3
2022-08-18T05:42:16.398Z,950.3
2022-08-18T05:43:18.035Z,950.3
2022-08-18T05:44:19.659Z,950.3
2022-08-18T05:45:21.248Z,950.3
2022-08-18T05:46:23.303Z,950.3
2022-08-18T05:47:25.142Z,950.3
2022-08-18T05:48:26.706Z,950.3
2022-08-18T05:49:28.536Z,950.3
2022-08-18T05:50:30.093Z,950.3
2022-08-18T05:51:31.722Z,950.3
2022-08-18T05:52:33.866Z,950.3
2022-08-18T05:53:36.753Z,950.2
2022-08-18T05:54:42.660Z,950.2
2022-08-18T05:55:48.545Z,950.3
2022-08-18T05:56:50.107Z,950.2
2022-08-18T05:57:52.657Z,950.2
2022-08-18T05:58:55.273Z,950.3
2022-08-18T05:59:57.273Z,950.3
2022-08-18T06:01:00.630Z,950.3
2022-08-18T06:02:02.312Z,950.2
2022-08-18T06:03:04.285Z,950.3
2022-08-18T06:04:06.284Z,950.2
2022-08-18T06:05:07.941Z,950.2
2022-08-18T06:06:14.625Z,950.2
2022-08-18T06:07:17.009Z,950.2
2022-08-18T06:08:19.132Z,950.2
2022-08-18T06:09:20.777Z,950.2
2022-08-18T06:10:22.475Z,950.2
2022-08-18T06:11:24.312Z,950.2
2022-08-18T06:12:26.130Z,950.2
2022-08-18T06:13:27.730Z,950.2
2022-08-18T06:14:29.338Z,950.2
2022-08-18T06:15:33.214Z,950.2
2022-08-18T06:16:34.959Z,950.2
2022-08-18T06:17:39.368Z,950.2
2022-08-18T06:18:48.165Z,950.2
2022-08-18T06:19:49.884Z,950.2
2022-08-18T06:20:51.545Z,950.2
2022-08-18T06:21:53.321Z,950.2
2022-08-18T06:22:56.593Z,950.2
2022-08-18T06:23:58.213Z,950.2
2022-08-18T06:24:59.771Z,950.2
2022-08-18T06:26:01.311Z,950.2
2022-08-18T06:27:02.993Z,950.2
2022-08-18T06:28:05.128Z,950.2
2022-08-18T06:29:06.991Z,950.1
2022-08-18T06:30:08.591Z,950.1
2022-08-18T06:31:10.161Z,950.1
2022-08-18T06:32:11.840Z,950.1
2022-08-18T06:33:13.350Z,950.1
2022-08-18T06:34:15.040Z,950.1
2022-08-18T06:35:16.736Z,950.1
2022-08-18T06:36:21.865Z,950.1
2022-08-18T06:37:23.837Z,950.1
2022-08-18T06:38:25.483Z,950.2
2022-08-18T06:39:27.982Z,950.2
2022-08-18T06:40:29.678Z,950.2
2022-08-18T06:41:44.148Z,950.2
2022-08-18T06:42:45.920Z,950.2
2022-08-18T06:43:47.650Z,950.2
2022-08-18T06:44:49.428Z,950.2
2022-08-18T06:45:51.127Z,950.2
2022-08-18T06:46:54.422Z,950.2
2022-08-18T06:47:56.017Z,950.2
2022-08-18T06:48:58.121Z,950.1
2022-08-18T06:49:59.857Z,950.1
2022-08-18T06:51:01.400Z,950.1
2022-08-18T06:52:03.102Z,950
2022-08-18T06:53:04.694Z,950
2022-08-18T06:54:06.392Z,950
2022-08-18T06:55:08.018Z,950
2022-08-18T06:56:27.244Z,950
2022-08-18T06:57:28.851Z,950
2022-08-18T06:58:31.193Z,950
2022-08-18T06:59:33.000Z,950
2022-08-18T07:00:37.481Z,950
2022-08-18T07:01:41.069Z,950
2022-08-18T07:02:42.944Z,950
2022-08-18T07:03:44.702Z,950
2022-08-18T07:04:48.394Z,950
2022-08-18T07:05:50.168Z,949.9
2022-08-18T07:06:51.868Z,949.9
2022-08-18T07:07:54.337Z,949.9
2022-08-18T07:08:56.510Z,949.9
2022-08-18T07:09:58.163Z,949.9
2022-08-18T07:10:59.793Z,949.9
2022-08-18T07:12:01.514Z,949.9
2022-08-18T07:13:03.290Z,949.9
2022-08-18T07:14:17.419Z,949.8
2022-08-18T07:15:21.943Z,949.9
2022-08-18T07:16:59.927Z,949.8
2022-08-18T07:18:02.005Z,949.8
2022-08-18T07:19:03.706Z,949.8
2022-08-18T07:20:05.324Z,949.8
2022-08-18T07:21:06.965Z,949.8
2022-08-18T07:22:08.691Z,949.8
2022-08-18T07:23:10.342Z,949.8
2022-08-18T07:24:26.093Z,949.8
2022-08-18T07:25:27.725Z,949.8
2022-08-18T07:26:29.354Z,949.7
2022-08-18T07:27:30.921Z,949.7
2022-08-18T07:28:32.947Z,949.8
2022-08-18T07:29:34.841Z,949.7
2022-08-18T07:30:36.770Z,949.7
2022-08-18T07:31:38.425Z,949.7
2022-08-18T07:32:40.229Z,949.8
2022-08-18T07:33:42.458Z,949.7
2022-08-18T07:34:53.541Z,949.7
2022-08-18T07:35:55.644Z,949.7
2022-08-18T07:36:57.377Z,949.7
2022-08-18T07:37:59.662Z,949.7
2022-08-18T07:39:02.176Z,949.7
2022-08-18T07:40:04.238Z,949.7
2022-08-18T07:41:06.023Z,949.7
2022-08-18T07:42:07.832Z,949.7
2022-08-18T07:43:09.403Z,949.7
2022-08-18T07:44:14.457Z,949.7
2022-08-18T07:45:17.455Z,949.7
2022-08-18T07:46:25.713Z,949.7
2022-08-18T07:47:27.392Z,949.7
2022-08-18T07:48:44.437Z,949.7
2022-08-18T07:50:55.327Z,949.7
2022-08-18T07:52:05.189Z,949.7
2022-08-18T07:53:07.690Z,949.7
2022-08-18T07:54:50.336Z,949.7
2022-08-18T07:55:52.979Z,949.7
2022-08-18T07:56:54.693Z,949.7
2022-08-18T07:57:57.411Z,949.7
2022-08-18T07:58:59.665Z,949.7
2022-08-18T08:00:01.371Z,949.7
2022-08-18T08:01:03.057Z,949.7
2022-08-18T08:02:05.140Z,949.7
2022-08-18T08:03:07.044Z,949.7
2022-08-18T08:04:26.304Z,949.8
2022-08-18T08:05:28.250Z,949.7
2022-08-18T08:06:29.915Z,949.7
2022-08-18T08:07:31.482Z,949.7
2022-08-18T08:08:33.158Z,949.7
2022-08-18T08:09:34.813Z,949.7
2022-08-18T08:10:36.496Z,949.7
2022-08-18T08:11:38.213Z,949.7
2022-08-18T08:12:39.840Z,949.7
2022-08-18T08:13:56.889Z,949.7
2022-08-18T08:14:59.201Z,949.7
2022-08-18T08:16:00.875Z,949.7
2022-08-18T08:17:02.611Z,949.7
2022-08-18T08:18:04.853Z,949.7
2022-08-18T08:19:12.979Z,949.7
2022-08-18T08:20:14.722Z,949.7
2022-08-18T08:21:16.508Z,949.6
2022-08-18T08:22:18.203Z,949.6
2022-08-18T08:23:19.975Z,949.7
2022-08-18T08:24:21.610Z,949.7
2022-08-18T08:25:47.936Z,949.7
2022-08-18T08:26:49.584Z,949.7
2022-08-18T08:27:51.878Z,949.6
2022-08-18T08:28:56.453Z,949.7
2022-08-18T08:29:58.226Z,949.7
2022-08-18T08:31:38.252Z,949.6
2022-08-18T08:32:40.200Z,949.7
2022-08-18T08:33:42.316Z,949.6
2022-08-18T08:34:44.012Z,949.6
2022-08-18T08:35:51.077Z,949.6
2022-08-18T08:36:53.346Z,949.7
2022-08-18T08:38:23.186Z,949.7
2022-08-18T08:39:44.817Z,949.6
2022-08-18T08:40:46.814Z,949.7
2022-08-18T08:41:48.473Z,949.6
2022-08-18T08:42:50.204Z,949.6
2022-08-18T08:43:51.866Z,949.6
2022-08-18T08:45:00.962Z,949.6
2022-08-18T08:46:02.955Z,949.6
2022-08-18T08:47:04.583Z,949.6
2022-08-18T08:48:10.202Z,949.6
2022-08-18T08:49:11.909Z,949.6
2022-08-18T08:50:13.611Z,949.6
2022-08-18T08:51:15.994Z,949.6
2022-08-18T08:52:19.446Z,949.6
2022-08-18T08:53:21.148Z,949.6
2022-08-18T08:54:22.726Z,949.6
2022-08-18T08:55:24.391Z,949.6
2022-08-18T08:56:26.029Z,949.6
2022-08-18T08:57:27.611Z,949.7
2022-08-18T08:58:29.372Z,949.6
2022-08-18T08:59:31.072Z,949.6
2022-08-18T09:00:32.816Z,949.6
2022-08-18T09:01:34.787Z,949.6
2022-08-18T09:02:49.288Z,949.6
2022-08-18T09:03:51.307Z,949.6
2022-08-18T09:05:10.114Z,949.6
2022-08-18T09:06:12.192Z,949.5
2022-08-18T09:07:14.133Z,949.6
2022-08-18T09:08:15.707Z,949.6
2022-08-18T09:09:17.330Z,949.6
2022-08-18T09:10:18.966Z,949.6
2022-08-18T09:11:20.714Z,949.6
2022-08-18T09:12:22.414Z,949.6
2022-08-18T09:13:29.754Z,949.6
2022-08-18T09:14:31.474Z,949.5
2022-08-18T09:15:34.160Z,949.5
2022-08-18T09:16:36.346Z,949.5
2022-08-18T09:17:38.036Z,949.5
2022-08-18T09:18:39.802Z,949.5
2022-08-18T09:19:41.588Z,949.5
2022-08-18T09:20:49.786Z,949.4
2022-08-18T09:21:51.500Z,949.4
2022-08-18T09:22:53.907Z,949.3
2022-08-18T09:23:55.978Z,949.3
2022-08-18T09:24:57.764Z,949.4
2022-08-18T09:25:59.515Z,949.4
2022-08-18T09:27:01.088Z,949.3
2022-08-18T09:28:12.234Z,949.4
2022-08-18T09:29:14.129Z,949.3
2022-08-18T09:30:16.360Z,949.3
2022-08-18T09:31:20.341Z,949.3
2022-08-18T09:32:24.748Z,949.3
2022-08-18T09:33:26.397Z,949.3
2022-08-18T09:34:29.484Z,949.3
2022-08-18T09:35:31.896Z,949.3
2022-08-18T09:36:34.389Z,949.3
2022-08-18T09:37:45.349Z,949.3
2022-08-18T09:38:47.013Z,949.3
2022-08-18T09:39:56.882Z,949.2
2022-08-18T09:41:04.187Z,949.2
2022-08-18T09:42:08.603Z,949.2
2022-08-18T09:43:11.908Z,949.2
2022-08-18T09:44:27.479Z,949.2
2022-08-18T09:45:34.662Z,949.2
2022-08-18T09:46:39.349Z,949.2
2022-08-18T09:47:48.363Z,949.2
2022-08-18T09:48:50.151Z,949.2
2022-08-18T09:49:54.812Z,949.2
2022-08-18T09:50:56.924Z,949.2
2022-08-18T09:51:58.872Z,949.2
2022-08-18T09:53:05.537Z,949.2
2022-08-18T09:54:07.390Z,949.2
2022-08-18T09:55:09.131Z,949.2
2022-08-18T09:56:13.049Z,949.1
2022-08-18T09:57:21.358Z,949.1
2022-08-18T09:58:26.152Z,949.1
2022-08-18T09:59:27.950Z,949.1
2022-08-18T10:00:34.222Z,949
2022-08-18T10:01:36.883Z,949
2022-08-18T10:02:39.222Z,949
2022-08-18T10:03:41.689Z,949
2022-08-18T10:04:43.532Z,949.1
2022-08-18T10:05:45.460Z,949
2022-08-18T10:06:51.215Z,949
2022-08-18T10:07:53.688Z,949
2022-08-18T10:08:55.944Z,949
2022-08-18T10:10:00.920Z,949
2022-08-18T10:26:06.179Z,948.9
2022-08-18T10:27:16.630Z,948.9
2022-08-18T10:28:18.296Z,948.9
2022-08-18T10:29:22.497Z,948.9
2022-08-18T10:46:47.063Z,948.8
2022-08-18T10:47:51.267Z,948.8
2022-08-18T10:48:52.876Z,948.7
2022-08-18T10:49:54.598Z,948.7
2022-08-18T10:50:57.226Z,948.7
2022-08-18T11:06:59.074Z,948.7
2022-08-18T11:08:01.031Z,948.6
2022-08-18T11:09:02.805Z,948.6
2022-08-18T11:10:31.889Z,948.6
2022-08-18T11:12:02.481Z,948.5
2022-08-18T11:13:11.108Z,948.5
2022-08-18T11:14:13.563Z,948.4
2022-08-18T11:30:17.796Z,948.4
2022-08-18T11:31:24.345Z,948.5
2022-08-18T11:32:26.071Z,948.5
2022-08-18T11:33:27.957Z,948.5
2022-08-18T11:34:29.661Z,948.5
2022-08-18T11:35:32.041Z,948.4
2022-08-18T11:36:34.430Z,948.4
2022-08-18T11:37:53.895Z,948.4
2022-08-18T11:38:57.452Z,948.4
2022-08-18T11:40:01.581Z,948.4
2022-08-18T11:41:13.938Z,948.4
2022-08-18T12:12:18.509Z,948.4
2022-08-18T12:13:23.283Z,948.1
2022-08-18T12:29:36.780Z,948
2022-08-18T12:30:47.163Z,948
2022-08-18T12:31:49.424Z,948
2022-08-18T12:33:13.064Z,948
2022-08-18T12:34:25.217Z,947.9
2022-08-18T12:35:28.969Z,948
2022-08-18T12:36:31.088Z,948
2022-08-18T12:38:14.200Z,948
2022-08-18T12:39:17.557Z,948
2022-08-18T12:40:19.522Z,947.9
2022-08-18T12:41:24.419Z,947.9
2022-08-18T12:42:27.705Z,947.9
2022-08-18T12:43:34.444Z,947.9
2022-08-18T12:44:40.799Z,947.9
2022-08-18T12:45:46.033Z,947.9
2022-08-18T12:46:49.800Z,947.9
2022-08-18T12:47:53.620Z,948
2022-08-18T12:48:56.251Z,948
2022-08-18T12:49:58.121Z,947.9
2022-08-18T12:51:06.256Z,947.9
2022-08-18T12:52:14.336Z,948
2022-08-18T12:54:00.228Z,948
2022-08-18T12:55:03.486Z,948
2022-08-18T13:05:53.102Z,947.9
2022-08-18T13:07:06.311Z,947.9
2022-08-18T13:08:33.502Z,947.8
2022-08-18T13:09:54.899Z,947.8
2022-08-18T13:10:58.796Z,947.8
2022-08-18T13:12:25.194Z,947.8
2022-08-18T13:13:30.583Z,947.8
2022-08-18T13:14:32.301Z,947.8
2022-08-18T13:15:34.340Z,947.8
2022-08-18T13:16:55.558Z,947.8
2022-08-18T13:17:57.220Z,947.7
2022-08-18T13:18:59.779Z,947.7
2022-08-18T13:20:01.524Z,947.7
2022-08-18T13:21:03.099Z,947.7
2022-08-18T13:22:05.198Z,947.7
2022-08-18T13:23:09.020Z,947.7
2022-08-18T13:24:13.312Z,947.7
2022-08-18T13:25:40.109Z,947.7
2022-08-18T13:26:41.918Z,947.7
2022-08-18T13:27:45.740Z,947.7
2022-08-18T13:28:58.817Z,947.6
2022-08-18T13:30:00.615Z,947.7
2022-08-18T13:31:05.881Z,947.7
2022-08-18T13:32:08.873Z,947.7
2022-08-18T13:34:03.853Z,947.6
2022-08-18T13:35:13.911Z,947.6
2022-08-18T13:36:29.265Z,947.6
2022-08-18T13:37:32.536Z,947.6
2022-08-18T13:38:36.774Z,947.6
2022-08-18T13:39:44.275Z,947.6
2022-08-18T13:40:47.581Z,947.6
2022-08-18T13:41:50.319Z,947.6
2022-08-18T13:42:57.380Z,947.6
2022-08-18T13:43:59.630Z,947.6
2022-08-18T13:45:26.345Z,947.6
2022-08-18T13:46:31.808Z,947.6
2022-08-18T13:47:38.770Z,947.5
2022-08-18T13:48:42.267Z,947.5
2022-08-18T13:49:59.569Z,947.5
2022-08-18T13:51:02.244Z,947.5
2022-08-18T13:52:35.670Z,947.5
2022-08-18T13:54:31.124Z,947.6
2022-08-18T13:55:36.816Z,947.6
2022-08-18T13:56:40.190Z,947.6
2022-08-18T13:57:44.299Z,947.6
2022-08-18T13:58:54.002Z,947.6
2022-08-18T13:59:55.759Z,947.6
2022-08-18T14:01:52.858Z,947.5
2022-08-18T14:02:56.909Z,947.4
2022-08-18T14:03:58.766Z,947.5
2022-08-18T14:05:00.510Z,947.5
2022-08-18T14:06:02.689Z,947.4
2022-08-18T14:07:19.202Z,947.4
2022-08-18T14:08:30.512Z,947.4
2022-08-18T14:09:38.602Z,947.3
2022-08-18T14:10:40.299Z,947.4
2022-08-18T14:11:51.724Z,947.4
2022-08-18T14:12:53.264Z,947.4
2022-08-18T14:13:55.547Z,947.4
2022-08-18T14:14:58.379Z,947.5
2022-08-18T14:16:00.875Z,947.4
2022-08-18T14:17:07.425Z,947.4
2022-08-18T14:18:16.759Z,947.4
2022-08-18T14:19:23.214Z,947.4
2022-08-18T14:20:28.029Z,947.4
2022-08-18T14:21:29.785Z,947.4
2022-08-18T14:22:31.415Z,947.5
2022-08-18T14:23:33.791Z,947.4
2022-08-18T14:24:38.809Z,947.4
2022-08-18T14:25:41.566Z,947.4
2022-08-18T14:26:44.430Z,947.4
2022-08-18T14:27:57.360Z,947.4
2022-08-18T14:28:59.210Z,947.4
2022-08-18T14:30:01.193Z,947.4
2022-08-18T14:31:03.144Z,947.4
2022-08-18T14:32:13.213Z,947.4
2022-08-18T14:33:56.449Z,947.4
2022-08-18T14:36:09.906Z,947.3
2022-08-18T14:37:12.485Z,947.3
2022-08-18T14:38:16.197Z,947.3
2022-08-18T14:39:17.739Z,947.3
2022-08-18T14:40:19.475Z,947.3
2022-08-18T14:41:28.994Z,947.3
2022-08-18T14:42:55.566Z,947.3
2022-08-18T14:44:16.942Z,947.3
2022-08-18T14:45:35.932Z,947.2
2022-08-18T14:46:41.389Z,947.3
2022-08-18T14:47:58.102Z,947.3
2022-08-18T14:49:04.665Z,947.3
2022-08-18T14:50:11.352Z,947.3
2022-08-18T14:51:13.922Z,947.3
2022-08-18T14:52:17.178Z,947.3
2022-08-18T14:53:19.370Z,947.3
2022-08-18T14:54:21.272Z,947.3
2022-08-18T14:55:22.815Z,947.3
2022-08-18T14:56:29.918Z,947.3
2022-08-18T14:57:41.256Z,947.3
2022-08-18T14:58:42.792Z,947.3
2022-08-18T14:59:44.447Z,947.4
2022-08-18T15:00:56.787Z,947.4
2022-08-18T15:01:58.515Z,947.4
2022-08-18T15:03:01.656Z,947.4
2022-08-18T15:04:20.107Z,947.4
2022-08-18T15:05:25.849Z,947.4
2022-08-18T15:06:27.738Z,947.3
2022-08-18T15:07:33.237Z,947.4
2022-08-18T15:08:35.920Z,947.4
2022-08-18T15:09:38.693Z,947.3
2022-08-18T15:10:40.402Z,947.3
2022-08-18T15:11:43.811Z,947.3
2022-08-18T15:12:50.895Z,947.2
2022-08-18T15:13:55.907Z,947.3
2022-08-18T15:14:57.459Z,947.3
2022-08-18T15:16:02.591Z,947.3
2022-08-18T15:17:14.881Z,947.3
2022-08-18T15:18:23.377Z,947.3
2022-08-18T15:20:01.766Z,947.4
2022-08-18T15:21:38.662Z,947.4
2022-08-18T15:22:40.694Z,947.4
2022-08-18T15:23:43.507Z,947.4
2022-08-18T15:24:47.829Z,947.4
2022-08-18T15:25:51.589Z,947.4
2022-08-18T15:27:13.337Z,947.4
2022-08-18T15:28:45.975Z,947.4
2022-08-18T15:29:51.124Z,947.5
2022-08-18T15:31:56.587Z,947.5
2022-08-18T15:33:07.369Z,947.4
2022-08-18T15:34:12.994Z,947.4
2022-08-18T15:35:15.600Z,947.4
2022-08-18T15:36:29.482Z,947.4
2022-08-18T15:37:33.881Z,947.4
2022-08-18T15:38:35.517Z,947.4
2022-08-18T15:39:37.496Z,947.4
2022-08-18T15:40:43.851Z,947.4
2022-08-18T15:41:46.308Z,947.4
2022-08-18T15:42:50.379Z,947.4
2022-08-18T15:43:51.985Z,947.4
2022-08-18T15:44:54.153Z,947.4
2022-08-18T15:45:58.721Z,947.4
2022-08-18T15:47:01.569Z,947.4
2022-08-18T15:48:03.640Z,947.4
2022-08-18T15:49:06.416Z,947.4
2022-08-18T15:50:26.443Z,947.4
2022-08-18T15:51:42.043Z,947.4
2022-08-18T15:52:48.862Z,947.4
2022-08-18T15:53:50.715Z,947.3
2022-08-18T15:55:04.944Z,947.4
2022-08-18T15:56:12.822Z,947.3
2022-08-18T15:57:40.549Z,947.4
2022-08-18T15:58:42.187Z,947.3